createdAt,value
2022-08-03T00:00:21.778Z,19.92
2022-08-03T00:01:21.776Z,19.90
2022-08-03T00:02:21.802Z,19.88
2022-08-03T00:03:21.830Z,19.85
2022-08-03T00:04:21.751Z,19.83
2022-08-03T00:05:22.730Z,19.81
2022-08-03T00:06:21.744Z,19.79
2022-08-03T00:07:21.722Z,19.77
2022-08-03T00:08:21.730Z,19.76
2022-08-03T00:09:21.692Z,19.75
2022-08-03T00:10:21.665Z,19.74
2022-08-03T00:11:21.688Z,19.73
2022-08-03T00:12:21.693Z,19.73
2022-08-03T00:13:21.646Z,19.72
2022-08-03T00:14:21.653Z,19.71
2022-08-03T00:15:21.622Z,19.70
2022-08-03T00:16:21.611Z,19.68
2022-08-03T00:17:21.620Z,19.67
2022-08-03T00:18:21.580Z,19.65
2022-08-03T00:19:21.561Z,19.63
2022-08-03T00:20:21.604Z,19.61
2022-08-03T00:21:21.576Z,19.60
2022-08-03T00:22:21.524Z,19.59
2022-08-03T00:23:21.532Z,19.57
2022-08-03T00:24:21.510Z,19.56
2022-08-03T00:25:21.494Z,19.54
2022-08-03T00:26:21.476Z,19.53
2022-08-03T00:27:21.485Z,19.51
2022-08-03T00:28:21.470Z,19.49
2022-08-03T00:29:21.449Z,19.47
2022-08-03T00:30:21.433Z,19.45
2022-08-03T00:31:29.686Z,19.44
2022-08-03T00:32:22.600Z,19.42
2022-08-03T00:33:21.428Z,19.41
2022-08-03T00:34:29.854Z,19.39
2022-08-03T00:35:36.470Z,19.37
2022-08-03T00:36:22.370Z,19.36
2022-08-03T00:37:21.365Z,19.34
2022-08-03T00:38:22.367Z,19.33
2022-08-03T00:39:21.331Z,19.32
2022-08-03T00:40:21.329Z,19.31
2022-08-03T00:41:21.322Z,19.29
2022-08-03T00:42:21.301Z,19.28
2022-08-03T00:43:21.289Z,19.27
2022-08-03T00:44:21.315Z,19.25
2022-08-03T00:45:21.271Z,19.24
2022-08-03T00:46:22.027Z,19.22
2022-08-03T00:47:21.270Z,19.20
2022-08-03T00:48:33.341Z,19.19
2022-08-03T00:49:22.312Z,19.17
2022-08-03T00:50:21.200Z,19.15
2022-08-03T00:51:21.220Z,19.13
2022-08-03T00:52:21.274Z,19.11
2022-08-03T00:53:21.192Z,19.09
2022-08-03T00:54:21.193Z,19.07
2022-08-03T00:55:21.158Z,19.06
2022-08-03T00:56:21.127Z,19.04
2022-08-03T00:57:21.139Z,19.02
2022-08-03T00:58:21.107Z,19.00
2022-08-03T00:59:21.108Z,18.98
2022-08-03T01:00:21.106Z,18.96
2022-08-03T01:01:21.154Z,18.95
2022-08-03T01:02:21.062Z,18.93
2022-08-03T01:03:21.062Z,18.92
2022-08-03T01:04:21.063Z,18.91
2022-08-03T01:05:21.056Z,18.90
2022-08-03T01:06:21.012Z,18.89
2022-08-03T01:07:21.007Z,18.88
2022-08-03T01:08:20.984Z,18.87
2022-08-03T01:09:21.005Z,18.85
2022-08-03T01:10:20.989Z,18.84
2022-08-03T01:11:20.973Z,18.82
2022-08-03T01:12:20.950Z,18.81
2022-08-03T01:14:03.536Z,18.81
2022-08-03T01:14:21.941Z,18.80
2022-08-03T01:15:20.921Z,18.78
2022-08-03T01:16:20.917Z,18.77
2022-08-03T01:17:21.883Z,18.76
2022-08-03T01:18:20.875Z,18.75
2022-08-03T01:19:20.863Z,18.74
2022-08-03T01:20:20.909Z,18.72
2022-08-03T01:21:20.853Z,18.71
2022-08-03T01:22:20.823Z,18.70
2022-08-03T01:23:20.832Z,18.69
2022-08-03T01:24:20.808Z,18.69
2022-08-03T01:25:20.817Z,18.68
2022-08-03T01:26:20.789Z,18.67
2022-08-03T01:27:20.765Z,18.67
2022-08-03T01:28:20.756Z,18.66
2022-08-03T01:29:20.752Z,18.65
2022-08-03T01:30:20.751Z,18.64
2022-08-03T01:31:20.727Z,18.64
2022-08-03T01:32:53.348Z,18.63
2022-08-03T01:33:21.698Z,18.63
2022-08-03T01:34:20.704Z,18.63
2022-08-03T01:35:20.702Z,18.62
2022-08-03T01:36:20.676Z,18.62
2022-08-03T01:37:20.656Z,18.61
2022-08-03T01:38:20.641Z,18.60
2022-08-03T01:39:20.658Z,18.59
2022-08-03T01:40:20.651Z,18.58
2022-08-03T01:41:20.626Z,18.57
2022-08-03T01:42:20.594Z,18.56
2022-08-03T01:43:55.165Z,18.56
2022-08-03T01:44:30.155Z,18.55
2022-08-03T01:45:21.580Z,18.54
2022-08-03T01:46:20.585Z,18.53
2022-08-03T01:47:20.544Z,18.52
2022-08-03T01:48:20.526Z,18.50
2022-08-03T01:49:20.583Z,18.49
2022-08-03T01:50:20.538Z,18.48
2022-08-03T01:51:20.510Z,18.46
2022-08-03T01:52:20.625Z,18.45
2022-08-03T01:53:20.490Z,18.44
2022-08-03T01:54:20.468Z,18.42
2022-08-03T01:55:20.451Z,18.41
2022-08-03T01:56:20.444Z,18.40
2022-08-03T01:57:20.459Z,18.39
2022-08-03T01:58:20.408Z,18.37
2022-08-03T01:59:20.409Z,18.36
2022-08-03T02:00:20.412Z,18.35
2022-08-03T02:01:20.448Z,18.33
2022-08-03T02:02:34.089Z,18.32
2022-08-03T02:03:21.351Z,18.32
2022-08-03T02:04:20.353Z,18.31
2022-08-03T02:05:20.337Z,18.29
2022-08-03T02:07:01.479Z,18.28
2022-08-03T02:07:21.320Z,18.28
2022-08-03T02:08:20.301Z,18.27
2022-08-03T02:09:20.294Z,18.26
2022-08-03T02:10:34.574Z,18.25
2022-08-03T02:11:21.297Z,18.24
2022-08-03T02:12:20.262Z,18.23
2022-08-03T02:13:20.253Z,18.22
2022-08-03T02:14:20.237Z,18.22
2022-08-03T02:15:20.242Z,18.21
2022-08-03T02:16:20.219Z,18.21
2022-08-03T02:17:39.647Z,18.21
2022-08-03T02:18:21.181Z,18.21
2022-08-03T02:19:20.171Z,18.21
2022-08-03T02:20:20.158Z,18.20
2022-08-03T02:21:55.828Z,18.19
2022-08-03T02:22:21.171Z,18.19
2022-08-03T02:23:20.127Z,18.18
2022-08-03T02:24:20.129Z,18.17
2022-08-03T02:25:20.123Z,18.17
2022-08-03T02:26:20.090Z,18.17
2022-08-03T02:27:20.089Z,18.16
2022-08-03T02:28:20.211Z,18.16
2022-08-03T02:29:20.056Z,18.15
2022-08-03T02:30:20.036Z,18.14
2022-08-03T02:31:20.037Z,18.12
2022-08-03T02:32:20.047Z,18.11
2022-08-03T02:33:20.025Z,18.09
2022-08-03T02:34:19.995Z,18.07
2022-08-03T02:35:20.011Z,18.05
2022-08-03T02:36:19.966Z,18.03
2022-08-03T02:37:19.958Z,18.01
2022-08-03T02:38:19.965Z,18.00
2022-08-03T02:39:19.959Z,17.98
2022-08-03T02:40:19.936Z,17.97
2022-08-03T02:41:19.925Z,17.96
2022-08-03T02:42:19.984Z,17.95
2022-08-03T02:43:19.905Z,17.95
2022-08-03T02:44:19.900Z,17.95
2022-08-03T02:45:19.858Z,17.95
2022-08-03T02:46:19.865Z,17.95
2022-08-03T02:47:19.875Z,17.95
2022-08-03T02:48:19.851Z,17.95
2022-08-03T02:49:42.658Z,17.96
2022-08-03T02:50:20.841Z,17.95
2022-08-03T02:51:19.801Z,17.95
2022-08-03T02:52:19.790Z,17.95
2022-08-03T02:53:19.790Z,17.95
2022-08-03T02:54:19.810Z,17.95
2022-08-03T02:55:19.757Z,17.95
2022-08-03T02:56:19.738Z,17.94
2022-08-03T02:57:19.743Z,17.94
2022-08-03T02:58:19.724Z,17.93
2022-08-03T02:59:19.721Z,17.92
2022-08-03T03:00:27.853Z,17.91
2022-08-03T03:01:20.782Z,17.90
2022-08-03T03:02:19.674Z,17.88
2022-08-03T03:03:19.772Z,17.87
2022-08-03T03:04:19.726Z,17.85
2022-08-03T03:05:55.894Z,17.84
2022-08-03T03:06:20.624Z,17.83
2022-08-03T03:07:19.615Z,17.82
2022-08-03T03:08:20.681Z,17.81
2022-08-03T03:09:19.593Z,17.80
2022-08-03T03:10:19.592Z,17.79
2022-08-03T03:11:19.571Z,17.78
2022-08-03T03:12:19.569Z,17.77
2022-08-03T03:13:19.544Z,17.76
2022-08-03T03:14:19.557Z,17.76
2022-08-03T03:15:20.555Z,17.75
2022-08-03T03:16:19.514Z,17.74
2022-08-03T03:17:19.505Z,17.73
2022-08-03T03:18:22.557Z,17.72
2022-08-03T03:19:19.481Z,17.71
2022-08-03T03:20:29.034Z,17.70
2022-08-03T03:21:20.487Z,17.69
2022-08-03T03:22:19.443Z,17.68
2022-08-03T03:23:19.436Z,17.66
2022-08-03T03:24:19.405Z,17.65
2022-08-03T03:25:19.407Z,17.64
2022-08-03T03:26:19.421Z,17.63
2022-08-03T03:27:19.398Z,17.62
2022-08-03T03:28:19.370Z,17.61
2022-08-03T03:29:19.357Z,17.60
2022-08-03T03:30:19.373Z,17.60
2022-08-03T03:31:19.357Z,17.59
2022-08-03T03:32:19.335Z,17.59
2022-08-03T03:33:19.306Z,17.58
2022-08-03T03:34:19.311Z,17.58
2022-08-03T03:35:19.286Z,17.56
2022-08-03T03:36:19.311Z,17.55
2022-08-03T03:37:19.270Z,17.54
2022-08-03T03:38:19.258Z,17.53
2022-08-03T03:39:19.243Z,17.52
2022-08-03T03:40:19.259Z,17.52
2022-08-03T03:41:19.244Z,17.52
2022-08-03T03:42:19.203Z,17.52
2022-08-03T03:43:19.213Z,17.53
2022-08-03T03:44:19.180Z,17.53
2022-08-03T03:45:19.179Z,17.54
2022-08-03T03:46:19.175Z,17.55
2022-08-03T03:47:19.148Z,17.55
2022-08-03T03:48:20.146Z,17.55
2022-08-03T03:49:19.155Z,17.55
2022-08-03T03:50:19.123Z,17.55
2022-08-03T03:51:19.120Z,17.54
2022-08-03T03:52:19.088Z,17.53
2022-08-03T03:53:19.096Z,17.53
2022-08-03T03:54:19.062Z,17.53
2022-08-03T03:55:19.094Z,17.52
2022-08-03T03:56:19.081Z,17.52
2022-08-03T03:57:19.021Z,17.53
2022-08-03T03:58:19.010Z,17.52
2022-08-03T03:59:19.012Z,17.53
2022-08-03T04:00:18.999Z,17.53
2022-08-03T04:01:19.144Z,17.53
2022-08-03T04:02:18.984Z,17.54
2022-08-03T04:03:18.950Z,17.54
2022-08-03T04:04:18.950Z,17.53
2022-08-03T04:05:18.942Z,17.53
2022-08-03T04:06:18.940Z,17.53
2022-08-03T04:07:18.909Z,17.52
2022-08-03T04:08:18.895Z,17.52
2022-08-03T04:09:18.911Z,17.52
2022-08-03T04:10:18.874Z,17.52
2022-08-03T04:11:18.884Z,17.52
2022-08-03T04:12:18.844Z,17.51
2022-08-03T04:13:18.849Z,17.51
2022-08-03T04:14:18.824Z,17.51
2022-08-03T04:15:18.820Z,17.50
2022-08-03T04:16:18.822Z,17.50
2022-08-03T04:17:18.814Z,17.49
2022-08-03T04:18:18.793Z,17.49
2022-08-03T04:19:23.059Z,17.48
2022-08-03T04:20:18.759Z,17.48
2022-08-03T04:21:18.748Z,17.47
2022-08-03T04:22:18.891Z,17.46
2022-08-03T04:23:18.751Z,17.46
2022-08-03T04:24:18.713Z,17.45
2022-08-03T04:25:18.697Z,17.45
2022-08-03T04:26:18.676Z,17.44
2022-08-03T04:27:18.689Z,17.43
2022-08-03T04:28:31.276Z,17.42
2022-08-03T04:29:19.652Z,17.42
2022-08-03T04:30:18.641Z,17.42
2022-08-03T04:31:18.661Z,17.41
2022-08-03T04:32:19.055Z,17.40
2022-08-03T04:33:18.601Z,17.39
2022-08-03T04:34:18.601Z,17.38
2022-08-03T04:35:18.609Z,17.38
2022-08-03T04:36:18.568Z,17.37
2022-08-03T04:37:18.558Z,17.36
2022-08-03T04:38:18.566Z,17.35
2022-08-03T04:39:18.538Z,17.34
2022-08-03T04:40:18.560Z,17.33
2022-08-03T04:41:18.540Z,17.31
2022-08-03T04:42:18.673Z,17.30
2022-08-03T04:43:18.501Z,17.29
2022-08-03T04:44:18.472Z,17.28
2022-08-03T04:45:18.470Z,17.28
2022-08-03T04:46:18.480Z,17.28
2022-08-03T04:47:18.455Z,17.27
2022-08-03T04:48:18.424Z,17.27
2022-08-03T04:49:18.477Z,17.27
2022-08-03T04:50:21.496Z,17.28
2022-08-03T04:51:18.395Z,17.29
2022-08-03T04:52:18.433Z,17.29
2022-08-03T04:53:18.370Z,17.30
2022-08-03T04:54:18.360Z,17.32
2022-08-03T04:55:18.361Z,17.33
2022-08-03T04:56:18.319Z,17.35
2022-08-03T04:57:23.045Z,17.36
2022-08-03T04:58:19.333Z,17.38
2022-08-03T04:59:18.291Z,17.40
2022-08-03T05:00:18.286Z,17.42
2022-08-03T05:01:18.308Z,17.45
2022-08-03T05:02:18.612Z,17.48
2022-08-03T05:03:20.127Z,17.50
2022-08-03T05:04:19.231Z,17.52
2022-08-03T05:05:18.213Z,17.55
2022-08-03T05:06:18.227Z,17.57
2022-08-03T05:07:22.706Z,17.60
2022-08-03T05:08:20.371Z,17.63
2022-08-03T05:09:22.841Z,17.67
2022-08-03T05:10:19.192Z,17.72
2022-08-03T05:11:18.168Z,17.77
2022-08-03T05:12:18.422Z,17.81
2022-08-03T05:13:18.144Z,17.86
2022-08-03T05:14:18.125Z,17.92
2022-08-03T05:15:19.109Z,17.99
2022-08-03T05:16:18.096Z,18.07
2022-08-03T05:17:18.079Z,18.16
2022-08-03T05:18:18.104Z,18.28
2022-08-03T05:19:18.085Z,18.41
2022-08-03T05:20:19.133Z,18.54
2022-08-03T05:21:18.076Z,18.69
2022-08-03T05:22:18.175Z,18.83
2022-08-03T05:23:18.045Z,18.97
2022-08-03T05:24:18.039Z,19.11
2022-08-03T05:25:19.319Z,19.23
2022-08-03T05:26:18.037Z,19.36
2022-08-03T05:27:17.971Z,19.48
2022-08-03T05:28:17.967Z,19.61
2022-08-03T05:29:17.957Z,19.72
2022-08-03T05:30:29.703Z,19.85
2022-08-03T05:31:18.916Z,19.97
2022-08-03T05:32:18.241Z,20.10
2022-08-03T05:33:17.910Z,20.23
2022-08-03T05:34:17.907Z,20.36
2022-08-03T05:35:55.881Z,20.49
2022-08-03T05:36:18.878Z,20.62
2022-08-03T05:37:17.888Z,20.76
2022-08-03T05:38:23.754Z,20.91
2022-08-03T05:39:18.834Z,21.06
2022-08-03T05:40:17.831Z,21.19
2022-08-03T05:41:21.924Z,21.31
2022-08-03T05:42:18.815Z,21.42
2022-08-03T05:43:17.799Z,21.53
2022-08-03T05:44:17.791Z,21.64
2022-08-03T05:45:17.754Z,21.75
2022-08-03T05:46:17.760Z,21.84
2022-08-03T05:47:17.772Z,21.92
2022-08-03T05:48:17.743Z,22.00
2022-08-03T05:49:17.734Z,22.09
2022-08-03T05:50:17.723Z,22.15
2022-08-03T05:51:17.702Z,22.18
2022-08-03T05:52:18.429Z,22.24
2022-08-03T05:53:17.671Z,22.32
2022-08-03T05:54:17.694Z,22.40
2022-08-03T05:55:17.656Z,22.48
2022-08-03T05:56:17.655Z,22.56
2022-08-03T05:57:17.684Z,22.66
2022-08-03T05:58:17.624Z,22.76
2022-08-03T05:59:37.678Z,22.86
2022-08-03T06:00:18.595Z,22.94
2022-08-03T06:01:17.696Z,22.99
2022-08-03T06:02:17.780Z,23.02
2022-08-03T06:03:17.569Z,23.08
2022-08-03T06:04:17.580Z,23.14
2022-08-03T06:05:17.547Z,23.21
2022-08-03T06:06:17.528Z,23.29
2022-08-03T06:07:17.506Z,23.38
2022-08-03T06:08:17.510Z,23.45
2022-08-03T06:09:17.497Z,23.52
2022-08-03T06:10:37.096Z,23.59
2022-08-03T06:11:18.468Z,23.66
2022-08-03T06:12:17.530Z,23.73
2022-08-03T06:13:17.442Z,23.80
2022-08-03T06:14:17.442Z,23.87
2022-08-03T06:15:17.433Z,23.97
2022-08-03T06:16:17.410Z,24.06
2022-08-03T06:17:17.409Z,24.13
2022-08-03T06:18:17.394Z,24.18
2022-08-03T06:19:17.376Z,24.22
2022-08-03T06:20:17.410Z,24.26
2022-08-03T06:21:17.338Z,24.33
2022-08-03T06:22:17.670Z,24.41
2022-08-03T06:23:18.008Z,24.49
2022-08-03T06:24:17.323Z,24.56
2022-08-03T06:25:17.321Z,24.63
2022-08-03T06:26:17.318Z,24.71
2022-08-03T06:27:17.284Z,24.79
2022-08-03T06:28:51.436Z,24.88
2022-08-03T06:29:18.256Z,24.96
2022-08-03T06:30:21.039Z,25.00
2022-08-03T06:31:17.257Z,25.01
2022-08-03T06:32:17.225Z,25.03
2022-08-03T06:33:17.220Z,25.08
2022-08-03T06:34:34.447Z,25.15
2022-08-03T06:35:18.197Z,25.21
2022-08-03T06:36:17.211Z,25.24
2022-08-03T06:37:17.171Z,25.25
2022-08-03T06:38:17.158Z,25.25
2022-08-03T06:39:17.167Z,25.27
2022-08-03T06:40:21.911Z,25.29
2022-08-03T06:41:18.177Z,25.35
2022-08-03T06:42:17.413Z,25.40
2022-08-03T06:43:17.109Z,25.42
2022-08-03T06:44:17.098Z,25.45
2022-08-03T06:45:17.096Z,25.49
2022-08-03T06:46:17.134Z,25.54
2022-08-03T06:47:17.046Z,25.57
2022-08-03T06:48:17.059Z,25.61
2022-08-03T06:49:17.160Z,25.68
2022-08-03T06:50:19.049Z,25.77
2022-08-03T06:51:17.064Z,25.83
2022-08-03T06:52:37.640Z,25.87
2022-08-03T06:53:19.240Z,25.94
2022-08-03T06:54:16.984Z,26.00
2022-08-03T06:55:16.964Z,26.02
2022-08-03T06:56:16.961Z,26.05
2022-08-03T06:57:16.971Z,26.09
2022-08-03T06:58:16.945Z,26.12
2022-08-03T07:00:08.895Z,26.14
2022-08-03T07:00:17.945Z,26.15
2022-08-03T07:01:18.873Z,26.13
2022-08-03T07:02:18.958Z,26.12
2022-08-03T07:03:16.876Z,26.15
2022-08-03T07:04:16.875Z,26.21
2022-08-03T07:05:16.885Z,26.28
2022-08-03T07:06:16.878Z,26.36
2022-08-03T07:07:16.836Z,26.44
2022-08-03T07:08:16.846Z,26.51
2022-08-03T07:09:17.819Z,26.60
2022-08-03T07:10:16.827Z,26.66
2022-08-03T07:11:16.809Z,26.69
2022-08-03T07:12:16.968Z,26.68
2022-08-03T07:13:16.807Z,26.64
2022-08-03T07:14:16.758Z,26.63
2022-08-03T07:15:55.099Z,26.64
2022-08-03T07:16:17.744Z,26.67
2022-08-03T07:17:16.728Z,26.69
2022-08-03T07:18:16.737Z,26.71
2022-08-03T07:19:16.729Z,26.75
2022-08-03T07:20:16.697Z,26.81
2022-08-03T07:21:16.692Z,26.85
2022-08-03T07:22:16.927Z,26.88
2022-08-03T07:23:19.361Z,26.90
2022-08-03T07:24:16.651Z,26.94
2022-08-03T07:25:16.637Z,26.99
2022-08-03T07:26:16.627Z,27.06
2022-08-03T07:27:16.611Z,27.11
2022-08-03T07:28:16.631Z,27.12
2022-08-03T07:29:16.607Z,27.12
2022-08-03T07:30:16.576Z,27.15
2022-08-03T07:31:16.571Z,27.21
2022-08-03T07:32:16.860Z,27.27
2022-08-03T07:33:16.567Z,27.33
2022-08-03T07:34:16.545Z,27.40
2022-08-03T07:35:24.718Z,27.46
2022-08-03T07:36:17.542Z,27.52
2022-08-03T07:37:16.499Z,27.57
2022-08-03T07:38:16.507Z,27.62
2022-08-03T07:39:17.908Z,27.68
2022-08-03T07:40:16.486Z,27.75
2022-08-03T07:41:16.482Z,27.79
2022-08-03T07:42:16.683Z,27.80
2022-08-03T07:43:16.456Z,27.81
2022-08-03T07:44:16.433Z,27.83
2022-08-03T07:45:16.617Z,27.85
2022-08-03T07:46:16.411Z,27.87
2022-08-03T07:47:22.430Z,27.89
2022-08-03T07:48:17.430Z,27.90
2022-08-03T07:49:16.434Z,27.93
2022-08-03T07:50:16.362Z,27.96
2022-08-03T07:51:16.372Z,27.98
2022-08-03T07:52:16.676Z,28.01
2022-08-03T07:53:16.365Z,28.05
2022-08-03T07:54:16.325Z,28.11
2022-08-03T07:55:16.322Z,28.17
2022-08-03T07:56:16.299Z,28.22
2022-08-03T07:57:16.283Z,28.27
2022-08-03T07:58:18.177Z,28.31
2022-08-03T07:59:17.277Z,28.34
2022-08-03T08:00:16.251Z,28.37
2022-08-03T08:01:16.282Z,28.40
2022-08-03T08:02:16.407Z,28.39
2022-08-03T08:03:16.254Z,28.36
2022-08-03T08:04:16.232Z,28.34
2022-08-03T08:05:16.205Z,28.35
2022-08-03T08:06:16.183Z,28.39
2022-08-03T08:07:16.175Z,28.42
2022-08-03T08:08:16.183Z,28.45
2022-08-03T08:09:16.154Z,28.49
2022-08-03T08:10:16.143Z,28.51
2022-08-03T08:11:16.137Z,28.55
2022-08-03T08:12:16.460Z,28.59
2022-08-03T08:13:16.127Z,28.64
2022-08-03T08:14:16.128Z,28.70
2022-08-03T08:15:16.111Z,28.75
2022-08-03T08:16:16.077Z,28.79
2022-08-03T08:17:16.076Z,28.81
2022-08-03T08:18:16.092Z,28.81
2022-08-03T08:19:16.038Z,28.85
2022-08-03T08:20:16.032Z,28.91
2022-08-03T08:21:17.020Z,28.97
2022-08-03T08:22:16.230Z,29.03
2022-08-03T08:23:37.022Z,29.08
2022-08-03T08:24:19.701Z,29.12
2022-08-03T08:25:15.989Z,29.15
2022-08-03T08:26:15.973Z,29.14
2022-08-03T08:27:15.994Z,29.12
2022-08-03T08:28:22.541Z,29.09
2022-08-03T08:29:16.952Z,29.10
2022-08-03T08:30:19.123Z,29.13
2022-08-03T08:31:15.913Z,29.14
2022-08-03T08:32:16.202Z,29.11
2022-08-03T08:33:22.329Z,29.12
2022-08-03T08:34:16.903Z,29.14
2022-08-03T08:35:15.868Z,29.15
2022-08-03T08:36:15.929Z,29.15
2022-08-03T08:37:15.851Z,29.15
2022-08-03T08:38:15.851Z,29.15
2022-08-03T08:39:17.591Z,29.14
2022-08-03T08:40:15.825Z,29.13
2022-08-03T08:41:15.804Z,29.14
2022-08-03T08:42:15.974Z,29.16
2022-08-03T08:43:15.816Z,29.20
2022-08-03T08:44:15.802Z,29.25
2022-08-03T08:45:15.760Z,29.29
2022-08-03T08:46:23.833Z,29.32
2022-08-03T08:47:16.754Z,29.36
2022-08-03T08:48:15.716Z,29.39
2022-08-03T08:49:15.750Z,29.43
2022-08-03T08:50:27.978Z,29.48
2022-08-03T08:51:16.701Z,29.54
2022-08-03T08:52:25.369Z,29.58
2022-08-03T08:53:18.960Z,29.59
2022-08-03T08:54:15.657Z,29.59
2022-08-03T08:55:15.669Z,29.61
2022-08-03T08:56:15.655Z,29.63
2022-08-03T08:57:33.568Z,29.66
2022-08-03T08:58:20.826Z,29.71
2022-08-03T08:59:15.743Z,29.77
2022-08-03T09:00:15.619Z,29.84
2022-08-03T09:01:15.622Z,29.90
2022-08-03T09:02:15.787Z,29.95
2022-08-03T09:03:22.564Z,30.00
2022-08-03T09:04:16.548Z,30.06
2022-08-03T09:05:15.545Z,30.12
2022-08-03T09:06:15.556Z,30.17
2022-08-03T09:07:20.412Z,30.21
2022-08-03T09:08:16.515Z,30.26
2022-08-03T09:10:11.971Z,30.30
2022-08-03T09:10:16.518Z,30.34
2022-08-03T09:11:15.493Z,30.38
2022-08-03T09:12:39.133Z,30.41
2022-08-03T09:13:16.451Z,30.43
2022-08-03T09:14:39.289Z,30.43
2022-08-03T09:15:17.367Z,30.43
2022-08-03T09:16:15.452Z,30.44
2022-08-03T09:17:17.327Z,30.43
2022-08-03T09:18:15.397Z,30.45
2022-08-03T09:19:15.385Z,30.49
2022-08-03T09:20:15.457Z,30.52
2022-08-03T09:21:30.668Z,30.55
2022-08-03T09:22:16.357Z,30.58
2022-08-03T09:23:51.749Z,30.63
2022-08-03T09:24:31.095Z,30.68
2022-08-03T09:25:24.302Z,30.73
2022-08-03T09:26:16.316Z,30.77
2022-08-03T09:27:15.439Z,30.81
2022-08-03T09:28:59.704Z,30.85
2022-08-03T09:29:16.288Z,30.88
2022-08-03T09:30:33.365Z,30.89
2022-08-03T09:31:16.238Z,30.90
2022-08-03T09:32:15.261Z,30.92
2022-08-03T09:33:15.230Z,30.94
2022-08-03T09:34:15.230Z,30.96
2022-08-03T09:35:16.050Z,30.97
2022-08-03T09:36:15.212Z,30.96
2022-08-03T09:37:15.366Z,30.95
2022-08-03T09:38:15.169Z,30.94
2022-08-03T09:39:15.217Z,30.95
2022-08-03T09:40:15.152Z,30.96
2022-08-03T09:41:15.169Z,30.98
2022-08-03T09:42:15.501Z,31.00
2022-08-03T09:43:15.122Z,31.03
2022-08-03T09:44:24.128Z,31.05
2022-08-03T09:45:16.112Z,31.06
2022-08-03T09:46:15.111Z,31.06
2022-08-03T09:47:15.219Z,31.07
2022-08-03T09:48:15.051Z,31.08
2022-08-03T09:49:15.083Z,31.10
2022-08-03T09:50:15.064Z,31.12
2022-08-03T09:52:18.700Z,31.15
2022-08-03T09:52:36.806Z,31.19
2022-08-03T09:53:16.000Z,31.23
2022-08-03T09:54:20.296Z,31.27
2022-08-03T09:55:23.807Z,31.32
2022-08-03T09:56:35.218Z,31.35
2022-08-03T09:57:16.278Z,31.37
2022-08-03T09:58:14.955Z,31.39
2022-08-03T09:59:14.933Z,31.39
2022-08-03T10:00:14.911Z,31.39
2022-08-03T10:01:24.501Z,31.37
2022-08-03T10:02:15.931Z,31.38
2022-08-03T10:03:14.891Z,31.39
2022-08-03T10:04:14.879Z,31.40
2022-08-03T10:05:17.515Z,31.43
2022-08-03T10:06:15.845Z,31.45
2022-08-03T10:07:14.837Z,31.47
2022-08-03T10:08:14.866Z,31.47
2022-08-03T10:09:14.820Z,31.47
2022-08-03T10:10:30.937Z,31.44
2022-08-03T10:11:15.800Z,31.43
2022-08-03T10:12:14.782Z,31.44
2022-08-03T10:13:14.790Z,31.45
2022-08-03T10:14:14.759Z,31.47
2022-08-03T10:16:22.081Z,31.50
2022-08-03T10:16:23.718Z,31.48
2022-08-03T10:17:15.928Z,31.51
2022-08-03T10:18:14.766Z,31.52
2022-08-03T10:19:14.705Z,31.52
2022-08-03T10:20:14.700Z,31.52
2022-08-03T10:21:14.705Z,31.51
2022-08-03T10:22:14.686Z,31.48
2022-08-03T10:23:14.655Z,31.44
2022-08-03T10:24:14.662Z,31.40
2022-08-03T10:25:14.648Z,31.38
2022-08-03T10:26:14.631Z,31.35
2022-08-03T10:27:14.644Z,31.32
2022-08-03T10:28:14.627Z,31.31
2022-08-03T10:29:14.612Z,31.30
2022-08-03T10:30:14.577Z,31.30
2022-08-03T10:31:14.590Z,31.32
2022-08-03T10:32:14.549Z,31.34
2022-08-03T10:33:50.158Z,31.36
2022-08-03T10:34:15.547Z,31.39
2022-08-03T10:35:20.412Z,31.41
2022-08-03T10:36:15.524Z,31.42
2022-08-03T10:37:14.530Z,31.42
2022-08-03T10:38:14.574Z,31.42
2022-08-03T10:39:16.049Z,31.42
2022-08-03T10:40:27.931Z,31.43
2022-08-03T10:41:15.463Z,31.42
2022-08-03T10:42:14.922Z,31.39
2022-08-03T10:43:14.453Z,31.36
2022-08-03T10:44:14.470Z,31.29
2022-08-03T10:45:14.428Z,31.20
2022-08-03T10:46:14.404Z,31.10
2022-08-03T10:47:14.392Z,31.05
2022-08-03T10:48:14.380Z,31.02
2022-08-03T10:49:14.432Z,31.01
2022-08-03T10:50:14.364Z,31.02
2022-08-03T10:51:14.370Z,31.04
2022-08-03T10:52:31.465Z,31.06
2022-08-03T10:53:16.628Z,31.08
2022-08-03T10:54:14.341Z,31.11
2022-08-03T10:55:14.345Z,31.15
2022-08-03T10:56:14.287Z,31.18
2022-08-03T10:57:14.798Z,31.22
2022-08-03T10:58:14.257Z,31.25
2022-08-03T10:59:27.940Z,31.26
2022-08-03T11:00:15.289Z,31.27
2022-08-03T11:01:14.273Z,31.27
2022-08-03T11:02:14.262Z,31.27
2022-08-03T11:03:14.207Z,31.27
2022-08-03T11:04:17.005Z,31.29
2022-08-03T11:05:14.207Z,31.31
2022-08-03T11:06:14.191Z,31.33
2022-08-03T11:07:14.193Z,31.35
2022-08-03T11:08:14.153Z,31.37
2022-08-03T11:09:14.148Z,31.37
2022-08-03T11:10:14.137Z,31.37
2022-08-03T11:11:14.137Z,31.37
2022-08-03T11:12:14.100Z,31.37
2022-08-03T11:13:14.101Z,31.36
2022-08-03T11:14:14.085Z,31.34
2022-08-03T11:15:14.077Z,31.31
2022-08-03T11:16:19.798Z,31.26
2022-08-03T11:17:15.053Z,31.22
2022-08-03T11:18:14.043Z,31.18
2022-08-03T11:19:14.025Z,31.15
2022-08-03T11:20:14.054Z,31.12
2022-08-03T11:21:14.023Z,31.08
2022-08-03T11:22:13.993Z,31.05
2022-08-03T11:23:13.994Z,31.05
2022-08-03T11:24:13.987Z,31.08
2022-08-03T11:25:54.345Z,31.12
2022-08-03T11:26:14.975Z,31.15
2022-08-03T11:27:13.942Z,31.18
2022-08-03T11:28:13.928Z,31.20
2022-08-03T11:29:13.947Z,31.21
2022-08-03T11:30:13.915Z,31.21
2022-08-03T11:31:27.197Z,31.21
2022-08-03T11:32:19.426Z,31.22
2022-08-03T11:33:13.879Z,31.20
2022-08-03T11:34:13.872Z,31.17
2022-08-03T11:35:13.847Z,31.12
2022-08-03T11:36:13.838Z,31.08
2022-08-03T11:37:14.855Z,31.05
2022-08-03T11:38:13.835Z,31.04
2022-08-03T11:39:16.684Z,31.03
2022-08-03T11:40:13.820Z,31.02
2022-08-03T11:41:13.781Z,31.02
2022-08-03T11:42:13.777Z,31.02
2022-08-03T11:43:13.836Z,31.02
2022-08-03T11:44:13.746Z,31.02
2022-08-03T11:45:13.768Z,31.00
2022-08-03T11:46:13.748Z,30.99
2022-08-03T11:47:14.713Z,30.98
2022-08-03T11:48:13.723Z,30.97
2022-08-03T11:49:13.737Z,30.98
2022-08-03T11:50:13.683Z,31.00
2022-08-03T11:51:13.682Z,31.01
2022-08-03T11:52:13.661Z,31.03
2022-08-03T11:53:13.693Z,31.04
2022-08-03T11:54:13.642Z,31.04
2022-08-03T11:55:13.639Z,31.04
2022-08-03T11:56:13.625Z,31.03
2022-08-03T11:57:13.623Z,31.03
2022-08-03T11:59:01.644Z,31.01
2022-08-03T11:59:20.181Z,30.99
2022-08-03T12:00:14.575Z,30.96
2022-08-03T12:01:13.578Z,30.93
2022-08-03T12:02:13.564Z,30.91
2022-08-03T12:03:13.663Z,30.89
2022-08-03T12:04:13.528Z,30.87
2022-08-03T12:05:13.532Z,30.86
2022-08-03T12:06:13.528Z,30.85
2022-08-03T12:07:13.552Z,30.85
2022-08-03T12:08:14.529Z,30.87
2022-08-03T12:09:13.532Z,30.90
2022-08-03T12:10:13.527Z,30.92
2022-08-03T12:11:13.464Z,30.95
2022-08-03T12:12:13.468Z,30.97
2022-08-03T12:13:56.685Z,30.98
2022-08-03T12:14:49.050Z,30.98
2022-08-03T12:15:14.409Z,30.98
2022-08-03T12:16:13.407Z,30.98
2022-08-03T12:17:13.391Z,31.00
2022-08-03T12:18:13.394Z,31.02
2022-08-03T12:19:13.400Z,31.04
2022-08-03T12:20:13.372Z,31.06
2022-08-03T12:21:13.350Z,31.09
2022-08-03T12:22:13.334Z,31.12
2022-08-03T12:23:13.324Z,31.15
2022-08-03T12:24:13.331Z,31.18
2022-08-03T12:25:13.313Z,31.21
2022-08-03T12:26:13.313Z,31.24
2022-08-03T12:27:13.290Z,31.27
2022-08-03T12:28:36.114Z,31.30
2022-08-03T12:29:14.266Z,31.33
2022-08-03T12:30:13.257Z,31.35
2022-08-03T12:31:13.234Z,31.37
2022-08-03T12:32:13.242Z,31.39
2022-08-03T12:33:13.214Z,31.41
2022-08-03T12:34:13.225Z,31.43
2022-08-03T12:35:13.197Z,31.44
2022-08-03T12:36:13.206Z,31.44
2022-08-03T12:37:22.203Z,31.45
2022-08-03T12:38:14.183Z,31.47
2022-08-03T12:39:13.189Z,31.48
2022-08-03T12:40:17.813Z,31.49
2022-08-03T12:41:14.139Z,31.50
2022-08-03T12:42:13.145Z,31.50
2022-08-03T12:43:13.114Z,31.49
2022-08-03T12:44:13.121Z,31.49
2022-08-03T12:45:13.124Z,31.50
2022-08-03T12:46:13.081Z,31.53
2022-08-03T12:47:13.159Z,31.58
2022-08-03T12:48:13.052Z,31.62
2022-08-03T12:49:13.081Z,31.67
2022-08-03T12:50:13.034Z,31.70
2022-08-03T12:51:13.033Z,31.73
2022-08-03T12:52:13.003Z,31.76